createdAt,value
2023-05-10T00:03:58.397Z,13.26
2023-05-10T00:09:03.068Z,13.11
2023-05-10T00:14:06.386Z,13.17
2023-05-10T00:19:09.775Z,13.39
2023-05-10T00:24:14.349Z,13.39
2023-05-10T00:29:19.369Z,13.07
2023-05-10T00:34:22.720Z,13.24
2023-05-10T00:39:28.072Z,13.47
2023-05-10T00:44:31.879Z,14.13
2023-05-10T00:49:35.566Z,14.36
2023-05-10T00:54:40.362Z,14.49
2023-05-10T00:59:44.866Z,14.59
2023-05-10T01:04:48.410Z,14.66
2023-05-10T01:09:53.188Z,14.53
2023-05-10T01:14:57.039Z,14.42
2023-05-10T01:20:00.553Z,14.77
2023-05-10T01:25:21.280Z,14.76
2023-05-10T01:31:09.151Z,14.65
2023-05-10T01:36:27.978Z,14.78
2023-05-10T01:41:42.179Z,14.73
2023-05-10T01:46:47.246Z,14.51
2023-05-10T01:51:55.796Z,14.65
2023-05-10T01:57:05.211Z,14.48
2023-05-10T02:02:12.791Z,14.42
2023-05-10T02:07:18.730Z,14.41
2023-05-10T02:12:22.730Z,14.46
2023-05-10T02:17:28.288Z,14.40
2023-05-10T02:22:35.151Z,14.40
2023-05-10T02:27:39.820Z,14.42
2023-05-10T02:32:46.460Z,14.38
2023-05-10T02:37:52.416Z,14.35
2023-05-10T02:42:58.528Z,14.52
2023-05-10T02:48:02.285Z,14.39
2023-05-10T02:53:13.645Z,14.57
2023-05-10T02:58:17.070Z,14.62
2023-05-10T03:03:20.899Z,14.55
2023-05-10T03:08:30.318Z,14.43
2023-05-10T03:13:40.353Z,14.47
2023-05-10T03:18:46.792Z,14.54
2023-05-10T03:23:57.566Z,14.27
2023-05-10T03:29:02.434Z,14.27
2023-05-10T03:34:05.907Z,14.13
2023-05-10T03:39:11.500Z,14.11
2023-05-10T03:44:15.096Z,13.90
2023-05-10T03:49:18.478Z,14.12
2023-05-10T03:54:23.327Z,13.98
2023-05-10T03:59:26.479Z,13.93
2023-05-10T04:04:29.699Z,13.89
2023-05-10T04:09:35.134Z,13.74
2023-05-10T04:14:38.989Z,13.55
2023-05-10T04:19:42.319Z,13.66
2023-05-10T04:24:47.237Z,13.75
2023-05-10T04:29:51.318Z,13.51
2023-05-10T04:34:55.000Z,13.65
2023-05-10T04:40:01.469Z,13.64
2023-05-10T04:45:05.590Z,13.65
2023-05-10T04:50:10.529Z,13.86
2023-05-10T04:55:15.300Z,13.96
2023-05-10T05:00:19.110Z,13.81
2023-05-10T05:05:22.590Z,14.01
2023-05-10T05:10:28.013Z,14.08
2023-05-10T05:15:31.669Z,14.34
2023-05-10T05:20:35.421Z,14.26
2023-05-10T05:25:40.261Z,14.70
2023-05-10T05:30:43.753Z,15.03
2023-05-10T05:35:51.724Z,15.15
2023-05-10T05:40:56.656Z,15.03
2023-05-10T05:45:59.983Z,15.17
2023-05-10T05:51:04.684Z,15.22
2023-05-10T05:56:11.149Z,15.22
2023-05-10T06:01:14.598Z,15.31
2023-05-10T06:06:17.949Z,14.90
2023-05-10T06:11:22.790Z,15.24
2023-05-10T06:16:26.789Z,15.20
2023-05-10T06:21:30.086Z,15.27
2023-05-10T06:26:35.102Z,15.50
2023-05-10T06:31:38.409Z,15.37
2023-05-10T06:36:42.187Z,15.48
2023-05-10T06:41:47.042Z,15.77
2023-05-10T06:46:51.026Z,15.95
2023-05-10T06:51:54.578Z,15.71
2023-05-10T06:56:59.591Z,15.73
2023-05-10T07:02:03.627Z,15.97
2023-05-10T07:07:07.118Z,16.22
2023-05-10T07:12:14.183Z,16.41
2023-05-10T07:17:18.440Z,16.49
2023-05-10T07:22:22.151Z,16.58
2023-05-10T07:27:27.424Z,16.90
2023-05-10T07:32:31.697Z,17.60
2023-05-10T07:37:35.370Z,17.82
2023-05-10T07:42:40.127Z,17.74
2023-05-10T07:47:43.461Z,17.55
2023-05-10T07:52:47.023Z,17.30
2023-05-10T07:57:51.755Z,17.60
2023-05-10T08:02:55.120Z,17.44
2023-05-10T08:07:58.351Z,17.62
2023-05-10T08:13:02.979Z,17.38
2023-05-10T08:18:06.393Z,17.79
2023-05-10T08:23:09.659Z,18.22
2023-05-10T08:28:14.361Z,17.90
2023-05-10T08:33:17.552Z,17.16
2023-05-10T08:38:20.847Z,17.49
2023-05-10T08:43:29.464Z,18.19
2023-05-10T08:48:36.584Z,18.35
2023-05-10T08:53:40.055Z,18.32
2023-05-10T08:58:44.936Z,18.03
2023-05-10T09:03:49.338Z,18.30
2023-05-10T09:08:53.025Z,17.97
2023-05-10T09:13:57.899Z,18.59
2023-05-10T09:19:01.270Z,18.70
2023-05-10T09:24:06.140Z,19.23
2023-05-10T09:29:10.810Z,19.32
2023-05-10T09:34:18.107Z,18.96
2023-05-10T09:39:21.767Z,18.19
2023-05-10T09:44:27.740Z,18.32
2023-05-10T09:49:31.500Z,19.33
2023-05-10T09:54:35.732Z,19.93
2023-05-10T09:59:45.474Z,20.82
2023-05-10T10:04:51.865Z,20.25
2023-05-10T10:09:55.527Z,20.24
2023-05-10T10:15:02.331Z,19.98
2023-05-10T10:20:06.270Z,19.73
2023-05-10T10:25:10.799Z,19.29
2023-05-10T10:30:26.169Z,19.21
2023-05-10T10:35:31.411Z,18.31
2023-05-10T10:40:35.922Z,17.93
2023-05-10T10:45:42.332Z,17.84
2023-05-10T10:50:47.365Z,17.91
2023-05-10T10:55:51.037Z,18.05
2023-05-10T11:01:12.382Z,18.41
2023-05-10T11:06:30.501Z,19.04
2023-05-10T11:11:34.204Z,18.92
2023-05-10T11:16:45.224Z,18.64
2023-05-10T11:21:49.791Z,19.12
2023-05-10T11:26:53.406Z,19.28
2023-05-10T11:32:00.200Z,19.48
2023-05-10T11:37:03.992Z,18.37
2023-05-10T11:42:10.247Z,18.67
2023-05-10T11:47:15.026Z,18.75
2023-05-10T11:52:20.738Z,18.33
2023-05-10T11:57:29.287Z,18.52
2023-05-10T12:02:34.500Z,17.79
2023-05-10T12:07:37.922Z,17.92
2023-05-10T12:12:42.905Z,18.21
2023-05-10T12:17:48.644Z,18.41
2023-05-10T12:22:53.742Z,17.96
2023-05-10T12:27:58.799Z,18.07
2023-05-10T12:33:05.422Z,18.42
2023-05-10T12:38:30.874Z,18.26
2023-05-10T12:43:34.703Z,18.77
2023-05-10T12:48:40.343Z,19.37
2023-05-10T12:53:46.064Z,19.54
2023-05-10T12:58:50.480Z,19.54
2023-05-10T13:03:55.267Z,18.85
2023-05-10T13:08:58.762Z,18.58
2023-05-10T13:14:01.952Z,18.25
2023-05-10T13:19:06.674Z,18.45
2023-05-10T13:24:11.044Z,17.74
2023-05-10T13:29:14.366Z,18.05
2023-05-10T13:34:21.490Z,17.61
2023-05-10T13:39:26.011Z,17.04
2023-05-10T13:44:29.303Z,17.57
2023-05-10T13:49:34.970Z,17.66
2023-05-10T13:54:39.063Z,17.88
2023-05-10T13:59:42.424Z,17.66
2023-05-10T14:04:47.119Z,17.45
2023-05-10T14:09:50.677Z,17.67
2023-05-10T14:14:54.440Z,17.97
2023-05-10T14:19:59.137Z,18.36
2023-05-10T14:25:02.890Z,18.44
2023-05-10T14:30:07.315Z,18.31
2023-05-10T14:35:16.001Z,18.52
2023-05-10T14:40:22.058Z,18.47
2023-05-10T14:45:26.001Z,18.16
2023-05-10T14:50:36.924Z,17.67
2023-05-10T14:55:40.997Z,17.68
2023-05-10T15:00:44.503Z,17.73
2023-05-10T15:05:49.574Z,17.01
2023-05-10T15:10:53.648Z,17.14
2023-05-10T15:15:57.962Z,16.84
2023-05-10T15:21:02.768Z,16.46
2023-05-10T15:26:06.055Z,16.66
2023-05-10T15:31:09.632Z,16.65
2023-05-10T15:36:14.533Z,16.91
2023-05-10T15:41:18.107Z,16.49
2023-05-10T15:46:21.490Z,16.18
2023-05-10T15:51:26.817Z,16.22
2023-05-10T15:56:30.410Z,16.29
2023-05-10T16:01:33.745Z,16.08
2023-05-10T16:06:39.024Z,16.25
2023-05-10T16:11:44.015Z,16.23
2023-05-10T16:16:47.722Z,16.11
2023-05-10T16:21:52.791Z,15.30
2023-05-10T16:26:56.244Z,15.39
2023-05-10T16:31:59.551Z,15.06
2023-05-10T16:37:04.264Z,14.97
2023-05-10T16:42:07.551Z,14.48
2023-05-10T16:47:10.710Z,14.64
2023-05-10T16:52:15.339Z,14.28
2023-05-10T16:57:18.610Z,14.66
2023-05-10T17:02:22.585Z,14.64
2023-05-10T17:07:29.367Z,14.69
2023-05-10T17:12:33.030Z,14.47
2023-05-10T17:17:36.493Z,14.76
2023-05-10T17:22:41.581Z,14.61
2023-05-10T17:27:45.055Z,14.67
2023-05-10T17:32:48.487Z,14.46
2023-05-10T17:37:53.013Z,14.46
2023-05-10T17:42:56.631Z,14.42
2023-05-10T17:48:00.007Z,14.29
2023-05-10T17:53:04.578Z,14.67
2023-05-10T17:58:07.883Z,14.70
2023-05-10T18:03:12.945Z,14.84
2023-05-10T18:08:22.835Z,14.58
2023-05-10T18:13:26.652Z,14.66
2023-05-10T18:18:30.571Z,14.50
2023-05-10T18:23:35.877Z,14.37
2023-05-10T18:28:40.126Z,14.42
2023-05-10T18:33:43.766Z,14.37
2023-05-10T18:38:49.264Z,14.28
2023-05-10T18:43:53.185Z,14.26
2023-05-10T18:48:56.941Z,14.02
2023-05-10T18:54:01.894Z,14.05
2023-05-10T18:59:06.400Z,13.82
2023-05-10T19:04:10.037Z,13.65
2023-05-10T19:09:15.438Z,13.64
2023-05-10T19:14:19.156Z,13.75
2023-05-10T19:19:25.851Z,13.62
2023-05-10T19:24:31.593Z,13.53
2023-05-10T19:29:35.927Z,13.78
2023-05-10T19:34:42.268Z,13.87
2023-05-10T19:39:47.440Z,13.84
2023-05-10T19:44:51.316Z,13.65
2023-05-10T19:49:54.720Z,13.63
2023-05-10T19:54:59.602Z,13.60
2023-05-10T20:00:05.012Z,13.62
2023-05-10T20:05:15.053Z,13.60
2023-05-10T20:10:20.360Z,13.60
2023-05-10T20:15:24.810Z,13.56
2023-05-10T20:20:28.520Z,13.44
2023-05-10T20:25:33.746Z,13.45
2023-05-10T20:30:37.274Z,13.27
2023-05-10T20:35:41.147Z,13.20
2023-05-10T20:40:46.793Z,13.18
2023-05-10T20:45:50.560Z,13.23
2023-05-10T20:50:54.266Z,13.31
2023-05-10T20:55:58.975Z,13.13
2023-05-10T21:01:02.372Z,13.06
2023-05-10T21:06:05.798Z,12.99
2023-05-10T21:11:10.400Z,13.14
2023-05-10T21:16:13.802Z,13.07
2023-05-10T21:21:17.112Z,12.96
2023-05-10T21:26:22.235Z,12.87
2023-05-10T21:31:25.726Z,12.89
2023-05-10T21:36:28.994Z,12.98
2023-05-10T21:41:33.687Z,13.07
2023-05-10T21:46:37.042Z,12.90
2023-05-10T21:51:40.639Z,13.01
2023-05-10T21:56:45.672Z,12.93
2023-05-10T22:01:49.343Z,12.83
2023-05-10T22:06:52.640Z,12.74
2023-05-10T22:11:57.291Z,12.58
2023-05-10T22:17:00.636Z,12.57
2023-05-10T22:22:03.906Z,12.72
2023-05-10T22:27:08.750Z,12.77
2023-05-10T22:32:12.069Z,12.73
2023-05-10T22:37:17.975Z,12.72
2023-05-10T22:42:22.785Z,12.70
2023-05-10T22:47:26.053Z,12.76
2023-05-10T22:52:29.766Z,12.57
2023-05-10T22:57:34.725Z,12.54
2023-05-10T23:02:38.189Z,12.43
2023-05-10T23:07:41.442Z,12.46
2023-05-10T23:12:46.207Z,12.49
2023-05-10T23:17:49.436Z,12.50
2023-05-10T23:22:52.700Z,12.49
2023-05-10T23:27:57.452Z,12.33
2023-05-10T23:33:01.126Z,12.41
2023-05-10T23:38:04.567Z,12.45
2023-05-10T23:43:09.349Z,12.40
2023-05-10T23:48:13.240Z,12.40
2023-05-10T23:53:16.888Z,12.34
2023-05-10T23:58:22.074Z,12.21
